Time;durP1;ratioP1;P1;durP2;ratioP2;P2;SDS_P1;SDS_P2;PMS_P1;PMS_P2;Temp;Humidity;BMP_temperature;BMP_pressure;BME280_temperature;BME280_humidity;BME280_pressure;Samples;Min_cycle;Max_cycle;Signal;HPM_P1;HPM_P2
2021/03/11 00:00:55;;;;;;;37.05;22.38;;;6.40;99.90;;;;;;5073194;28;20089;-84
2021/03/11 00:03:23;;;;;;;41.15;24.42;;;6.40;99.90;;;;;;5072806;28;20040;-83
2021/03/11 00:05:49;;;;;;;40.55;23.50;;;6.40;99.90;;;;;;5071683;28;20028;-84
2021/03/11 00:08:14;;;;;;;40.17;23.40;;;6.40;99.90;;;;;;5069084;28;20049;-84
2021/03/11 00:10:40;;;;;;;38.80;22.55;;;6.50;99.90;;;;;;5071418;28;20111;-84
2021/03/11 00:13:08;;;;;;;40.15;23.30;;;6.40;99.90;;;;;;5071459;28;20033;-83
2021/03/11 00:15:35;;;;;;;39.85;23.90;;;6.50;99.90;;;;;;5071490;28;20115;-83
2021/03/11 00:18:03;;;;;;;39.67;24.27;;;6.50;99.90;;;;;;5071437;28;20019;-83
2021/03/11 00:20:28;;;;;;;45.13;25.92;;;6.50;99.90;;;;;;5071324;28;20020;-82
2021/03/11 00:22:55;;;;;;;42.65;23.65;;;6.50;99.90;;;;;;5071307;28;20027;-82
2021/03/11 00:25:23;;;;;;;38.17;22.67;;;6.60;99.90;;;;;;5069985;28;20541;-83
2021/03/11 00:27:49;;;;;;;37.28;22.52;;;6.60;99.90;;;;;;5068145;28;20059;-83
2021/03/11 00:30:16;;;;;;;39.80;23.17;;;6.60;99.90;;;;;;5067041;28;20021;-84
2021/03/11 00:32:42;;;;;;;34.63;21.60;;;6.70;99.90;;;;;;5072487;28;20073;-82
2021/03/11 00:35:11;;;;;;;33.78;21.58;;;6.70;99.90;;;;;;5070295;28;20024;-83
2021/03/11 00:37:38;;;;;;;39.43;21.70;;;6.70;99.90;;;;;;5068377;28;20059;-83
2021/03/11 00:40:05;;;;;;;37.67;21.45;;;6.70;99.90;;;;;;5071072;28;20456;-84
2021/03/11 00:42:31;;;;;;;35.55;21.88;;;6.80;99.90;;;;;;5069521;28;20023;-84
2021/03/11 00:44:56;;;;;;;35.58;20.77;;;6.80;99.90;;;;;;5070909;28;20462;-83
2021/03/11 00:47:22;;;;;;;33.28;20.52;;;6.80;99.90;;;;;;5072177;28;20527;-83
2021/03/11 00:49:48;;;;;;;32.78;20.17;;;6.80;99.90;;;;;;5072226;28;20055;-83
2021/03/11 00:52:14;;;;;;;32.72;19.90;;;6.90;99.90;;;;;;5070874;28;20056;-83
2021/03/11 00:54:40;;;;;;;30.80;20.20;;;6.90;99.90;;;;;;5072055;28;20020;-84
2021/03/11 00:57:06;;;;;;;32.08;20.67;;;6.90;99.90;;;;;;5071334;28;20025;-82
2021/03/11 00:59:33;;;;;;;35.72;20.08;;;6.90;99.90;;;;;;5070760;28;20066;-84
2021/03/11 01:01:59;;;;;;;33.53;19.83;;;6.90;99.90;;;;;;5070988;28;20107;-84
2021/03/11 01:04:24;;;;;;;29.88;19.23;;;6.90;99.90;;;;;;5065659;28;20128;-82
2021/03/11 01:06:50;;;;;;;33.58;19.35;;;7.00;99.90;;;;;;5068872;28;20025;-82
2021/03/11 01:09:15;;;;;;;35.58;21.13;;;7.00;99.90;;;;;;5072370;28;20028;-82
2021/03/11 01:11:41;;;;;;;32.38;19.88;;;7.00;99.90;;;;;;5071591;28;20021;-83
2021/03/11 01:14:07;;;;;;;31.92;21.33;;;7.00;99.90;;;;;;5071799;28;20069;-82
2021/03/11 01:16:32;;;;;;;33.15;20.35;;;7.10;99.90;;;;;;5072589;28;20051;-83
2021/03/11 01:18:58;;;;;;;34.67;20.50;;;7.00;99.90;;;;;;5072804;28;20024;-84
2021/03/11 01:21:24;;;;;;;36.95;21.80;;;7.10;99.90;;;;;;5066729;28;20115;-84
2021/03/11 01:23:49;;;;;;;33.50;21.23;;;7.10;99.90;;;;;;5065032;28;20013;-84
2021/03/11 01:26:16;;;;;;;32.88;20.60;;;7.10;99.90;;;;;;5069427;28;20119;-84
2021/03/11 01:28:41;;;;;;;34.25;21.42;;;7.10;99.90;;;;;;5070694;28;20029;-83
2021/03/11 01:31:07;;;;;;;33.47;21.10;;;7.20;99.90;;;;;;5068907;28;20029;-85
2021/03/11 01:33:33;;;;;;;34.83;21.63;;;7.10;99.90;;;;;;5067787;28;20024;-83
2021/03/11 01:35:58;;;;;;;36.00;22.13;;;7.10;99.90;;;;;;5070608;28;20025;-85
2021/03/11 01:38:24;;;;;;;31.15;21.23;;;7.10;99.90;;;;;;5067514;28;20031;-85
2021/03/11 01:40:49;;;;;;;34.13;21.42;;;7.10;99.90;;;;;;5067873;28;20013;-84
2021/03/11 01:43:15;;;;;;;34.40;22.08;;;7.00;99.90;;;;;;5069253;28;20013;-84
2021/03/11 01:45:42;;;;;;;28.73;19.90;;;7.00;99.90;;;;;;5066920;28;20537;-84
2021/03/11 01:48:08;;;;;;;35.35;22.23;;;7.10;99.90;;;;;;5070169;28;20016;-84
2021/03/11 01:50:33;;;;;;;29.45;19.77;;;7.10;99.90;;;;;;5074612;28;20094;-85
2021/03/11 01:53:01;;;;;;;36.50;21.00;;;7.10;99.90;;;;;;5074336;28;20024;-86
2021/03/11 01:55:30;;;;;;;34.92;21.30;;;7.10;99.90;;;;;;5068953;28;20024;-85
2021/03/11 01:57:55;;;;;;;30.70;19.43;;;7.10;99.90;;;;;;5075747;28;20106;-85
2021/03/11 02:00:22;;;;;;;33.30;20.75;;;7.10;99.90;;;;;;5068304;28;20028;-86
2021/03/11 02:02:47;;;;;;;31.48;20.13;;;7.10;99.90;;;;;;5068715;28;20021;-85
2021/03/11 02:05:15;;;;;;;28.98;20.33;;;7.10;99.90;;;;;;5071265;28;20094;-86
2021/03/11 02:07:41;;;;;;;31.77;20.60;;;7.20;99.90;;;;;;5074297;28;20024;-84
2021/03/11 02:10:09;;;;;;;30.67;19.35;;;7.20;99.90;;;;;;5072406;28;20105;-83
2021/03/11 02:12:55;;;;;;;28.48;19.67;;;7.20;99.90;;;;;;5075439;28;20021;-87
2021/03/11 02:15:29;;;;;;;29.92;18.55;;;7.30;99.90;;;;;;5063669;28;20094;-85
2021/03/11 02:18:01;;;;;;;27.20;19.58;;;7.30;99.90;;;;;;5071585;28;20023;-86
2021/03/11 02:20:57;;;;;;;26.65;18.42;;;7.30;99.90;;;;;;5069915;28;20032;-86
2021/03/11 02:24:20;;;;;;;25.35;18.38;;;7.30;99.90;;;;;;5071765;28;20023;-85
2021/03/11 02:27:06;;;;;;;25.80;16.73;;;7.30;99.90;;;;;;5015747;28;20018;-85
2021/03/11 02:29:38;;;;;;;26.92;17.65;;;7.30;99.90;;;;;;5030101;28;20049;-84
2021/03/11 02:32:06;;;;;;;25.23;16.58;;;7.30;99.90;;;;;;5052164;28;20051;-85
2021/03/11 02:34:40;;;;;;;24.27;16.65;;;7.20;99.90;;;;;;5067218;28;20020;-84
2021/03/11 02:37:15;;;;;;;25.25;17.10;;;7.20;99.90;;;;;;5066728;28;20078;-85
2021/03/11 02:39:50;;;;;;;27.15;17.20;;;7.20;99.90;;;;;;5072661;28;20023;-84
2021/03/11 02:42:18;;;;;;;23.85;16.50;;;7.20;99.90;;;;;;5085559;28;20047;-86
2021/03/11 02:44:44;;;;;;;23.63;16.48;;;7.20;99.90;;;;;;5071857;28;20021;-86
2021/03/11 02:47:10;;;;;;;25.70;15.98;;;7.20;99.90;;;;;;5070480;28;20051;-86
2021/03/11 02:49:37;;;;;;;24.67;15.40;;;7.20;99.90;;;;;;5072221;28;20047;-84
2021/03/11 02:52:03;;;;;;;22.70;16.75;;;7.30;99.90;;;;;;5071269;28;20023;-84
2021/03/11 02:54:30;;;;;;;26.25;17.15;;;7.30;99.90;;;;;;5071551;28;20020;-84
2021/03/11 02:56:57;;;;;;;24.90;15.70;;;7.30;99.90;;;;;;5073139;28;20062;-85
2021/03/11 02:59:24;;;;;;;23.27;15.32;;;7.40;99.90;;;;;;5069376;28;20488;-84
2021/03/11 03:01:53;;;;;;;21.10;14.52;;;7.40;99.90;;;;;;5072864;28;20032;-85
2021/03/11 03:04:20;;;;;;;24.25;15.75;;;7.40;99.90;;;;;;5074044;28;20454;-83
2021/03/11 03:06:46;;;;;;;21.15;15.35;;;7.40;99.90;;;;;;5074242;28;20033;-84
2021/03/11 03:09:12;;;;;;;21.77;15.43;;;7.40;99.90;;;;;;5067206;28;20116;-84
2021/03/11 03:11:38;;;;;;;21.50;15.10;;;7.40;99.90;;;;;;5073016;28;20541;-83
2021/03/11 03:14:06;;;;;;;23.52;15.48;;;7.50;99.90;;;;;;5072733;28;20025;-83
2021/03/11 03:16:32;;;;;;;19.20;14.18;;;7.50;99.90;;;;;;5074099;28;20116;-84
2021/03/11 03:18:59;;;;;;;21.98;15.25;;;7.60;99.90;;;;;;5069300;28;20016;-83
2021/03/11 03:21:25;;;;;;;19.35;14.23;;;7.60;99.90;;;;;;5071573;28;20021;-82
2021/03/11 03:23:51;;;;;;;17.73;13.52;;;7.70;99.90;;;;;;5072442;28;20077;-81
2021/03/11 03:26:17;;;;;;;16.58;12.32;;;7.80;99.90;;;;;;5070655;28;20032;-82
2021/03/11 03:28:44;;;;;;;17.17;12.70;;;7.80;99.90;;;;;;5070909;28;20099;-82
2021/03/11 03:31:10;;;;;;;20.08;13.88;;;7.80;99.90;;;;;;5071954;28;20104;-81
2021/03/11 03:33:36;;;;;;;20.27;14.30;;;7.80;99.90;;;;;;5073657;28;20042;-82
2021/03/11 03:36:01;;;;;;;23.30;15.27;;;7.80;99.90;;;;;;5072491;28;20021;-83
2021/03/11 03:38:27;;;;;;;23.13;15.15;;;7.80;99.90;;;;;;5070808;28;20087;-84
2021/03/11 03:40:54;;;;;;;22.35;15.88;;;7.80;99.90;;;;;;5071107;28;20028;-85
2021/03/11 03:43:23;;;;;;;26.08;17.08;;;7.70;99.90;;;;;;5070804;28;20055;-84
2021/03/11 03:46:05;;;;;;;21.63;15.48;;;7.60;99.90;;;;;;5071442;28;20115;-84
2021/03/11 03:48:47;;;;;;;28.63;18.08;;;7.60;99.90;;;;;;5067742;28;20028;-85
2021/03/11 03:51:16;;;;;;;27.25;17.63;;;7.60;99.90;;;;;;5066640;28;20043;-86
2021/03/11 03:53:50;;;;;;;28.00;17.95;;;7.60;99.90;;;;;;5069590;28;20450;-86
2021/03/11 03:56:25;;;;;;;27.35;18.60;;;7.60;99.90;;;;;;5062941;28;20051;-85
2021/03/11 03:58:56;;;;;;;31.13;18.00;;;7.60;99.90;;;;;;5064975;28;20383;-87
2021/03/11 04:01:27;;;;;;;26.88;17.95;;;7.60;99.90;;;;;;5061625;28;20111;-86
2021/03/11 04:03:54;;;;;;;33.42;20.55;;;7.60;99.90;;;;;;5066819;28;20033;-90
2021/03/11 04:06:20;;;;;;;34.42;21.35;;;7.60;99.90;;;;;;5067598;28;20024;-87
2021/03/11 04:08:47;;;;;;;31.52;19.33;;;7.60;99.90;;;;;;5061712;28;20030;-85
2021/03/11 04:11:15;;;;;;;30.95;19.80;;;7.60;99.90;;;;;;5063020;28;20162;-88
2021/03/11 04:13:41;;;;;;;32.85;21.40;;;7.60;99.90;;;;;;5065054;28;20048;-86
2021/03/11 04:16:07;;;;;;;31.80;19.73;;;7.70;99.90;;;;;;5067176;28;20533;-88
2021/03/11 04:18:34;;;;;;;37.45;21.20;;;7.70;99.90;;;;;;5080791;28;20107;-88
2021/03/11 04:21:01;;;;;;;38.28;21.20;;;7.70;99.90;;;;;;5094564;28;20031;-85
2021/03/11 04:23:27;;;;;;;35.63;22.25;;;7.70;99.90;;;;;;5066633;28;20025;-85
2021/03/11 04:25:53;;;;;;;32.85;20.55;;;7.70;99.90;;;;;;5063377;28;20480;-84
2021/03/11 04:28:18;;;;;;;33.50;20.27;;;7.80;99.90;;;;;;5066209;28;20063;-86
2021/03/11 04:30:44;;;;;;;31.92;19.63;;;7.80;99.90;;;;;;5066793;28;20487;-85
2021/03/11 04:33:11;;;;;;;39.38;22.95;;;7.80;99.90;;;;;;5070719;28;20027;-85
2021/03/11 04:35:36;;;;;;;37.97;22.70;;;7.90;99.90;;;;;;5069163;28;20032;-84
2021/03/11 04:38:04;;;;;;;36.80;20.60;;;7.90;99.90;;;;;;5062006;28;20108;-85
2021/03/11 04:40:30;;;;;;;35.67;21.42;;;8.00;99.90;;;;;;5062767;28;20012;-87
2021/03/11 04:42:56;;;;;;;32.97;20.77;;;8.00;99.90;;;;;;5071153;28;20120;-85
2021/03/11 04:45:22;;;;;;;34.67;21.77;;;8.00;99.90;;;;;;5068666;28;20032;-84
2021/03/11 04:47:48;;;;;;;33.63;20.13;;;8.00;99.90;;;;;;5071264;28;20028;-86
2021/03/11 04:50:14;;;;;;;33.78;20.50;;;8.10;99.90;;;;;;5069631;28;20380;-85
2021/03/11 04:52:41;;;;;;;35.30;20.50;;;8.20;99.90;;;;;;5071318;28;20494;-85
2021/03/11 04:55:07;;;;;;;37.67;21.52;;;8.20;99.90;;;;;;5068763;28;20028;-85
2021/03/11 04:57:33;;;;;;;35.45;21.38;;;8.20;99.90;;;;;;5068438;28;20112;-84
2021/03/11 05:00:00;;;;;;;29.98;21.42;;;8.30;99.90;;;;;;5070911;28;20040;-84
2021/03/11 05:02:34;;;;;;;32.42;21.23;;;8.30;99.90;;;;;;5071055;28;20029;-84
2021/03/11 05:05:02;;;;;;;32.40;19.83;;;8.40;99.90;;;;;;5070566;28;20142;-85
2021/03/11 05:07:28;;;;;;;32.70;19.58;;;8.40;99.90;;;;;;5071202;28;20044;-83
2021/03/11 05:09:53;;;;;;;27.77;17.80;;;8.40;99.90;;;;;;5067109;28;20060;-86
2021/03/11 05:12:19;;;;;;;28.13;19.23;;;8.50;99.90;;;;;;5070897;28;20024;-85
2021/03/11 05:14:44;;;;;;;28.25;18.67;;;8.50;99.90;;;;;;5065372;28;20535;-86
2021/03/11 05:17:10;;;;;;;26.45;17.83;;;8.50;99.90;;;;;;5070613;28;20039;-84
2021/03/11 05:19:35;;;;;;;26.40;17.15;;;8.60;99.90;;;;;;5069887;28;20034;-85
2021/03/11 05:22:01;;;;;;;26.80;17.40;;;8.70;99.90;;;;;;5065069;28;20480;-84
2021/03/11 05:24:27;;;;;;;25.88;17.38;;;8.70;99.90;;;;;;5063393;28;20028;-84
2021/03/11 05:26:52;;;;;;;28.25;17.52;;;8.70;99.90;;;;;;5065324;28;20021;-84
2021/03/11 05:29:18;;;;;;;23.65;15.50;;;8.80;99.90;;;;;;5070511;28;20033;-85
2021/03/11 05:31:43;;;;;;;21.52;14.98;;;8.90;99.90;;;;;;5070739;28;20511;-86
2021/03/11 05:34:09;;;;;;;24.25;15.18;;;8.90;99.90;;;;;;5066544;28;20380;-84
2021/03/11 05:36:34;;;;;;;26.35;15.65;;;8.90;99.90;;;;;;5064137;28;20464;-84
2021/03/11 05:39:03;;;;;;;23.80;14.48;;;8.90;99.90;;;;;;5065196;28;20472;-84
2021/03/11 05:41:29;;;;;;;19.90;13.63;;;9.00;99.90;;;;;;5070467;28;20105;-85
2021/03/11 05:43:55;;;;;;;24.17;14.18;;;9.00;99.90;;;;;;5068129;28;20472;-84
2021/03/11 05:46:22;;;;;;;23.80;14.95;;;9.00;99.90;;;;;;5071655;28;20078;-85
2021/03/11 05:48:49;;;;;;;20.40;13.57;;;9.00;99.90;;;;;;5066298;28;20025;-84
2021/03/11 05:51:16;;;;;;;22.48;14.30;;;9.00;99.90;;;;;;5070235;28;20021;-84
2021/03/11 05:53:42;;;;;;;26.92;16.13;;;9.00;99.90;;;;;;5071723;28;20502;-83
2021/03/11 05:56:09;;;;;;;20.27;13.90;;;9.00;99.90;;;;;;5070380;28;20025;-84
2021/03/11 05:58:35;;;;;;;21.48;13.73;;;9.00;99.90;;;;;;5071606;28;20017;-83
2021/03/11 06:01:02;;;;;;;22.67;13.85;;;9.10;99.90;;;;;;5070046;28;20021;-83
2021/03/11 06:03:31;;;;;;;20.70;13.60;;;9.10;99.90;;;;;;5066538;28;20052;-83
2021/03/11 06:05:59;;;;;;;19.35;13.68;;;9.20;99.90;;;;;;5061770;28;20028;-84
2021/03/11 06:08:26;;;;;;;21.08;13.48;;;9.20;99.90;;;;;;5067535;28;20056;-84
2021/03/11 06:10:54;;;;;;;21.00;13.55;;;9.20;99.90;;;;;;5071018;28;20503;-84
2021/03/11 06:13:21;;;;;;;22.48;14.38;;;9.30;99.90;;;;;;5070391;28;20060;-84
2021/03/11 06:15:49;;;;;;;21.65;13.65;;;9.30;99.90;;;;;;5069822;28;20028;-83
2021/03/11 06:18:16;;;;;;;22.00;13.10;;;9.30;99.90;;;;;;5071093;28;20068;-86
2021/03/11 06:20:42;;;;;;;18.80;13.00;;;9.40;99.90;;;;;;5070882;28;20107;-83
2021/03/11 06:23:07;;;;;;;20.10;12.80;;;9.40;99.90;;;;;;5071016;28;20119;-83
2021/03/11 06:25:34;;;;;;;18.17;12.95;;;9.50;99.90;;;;;;5072613;28;20056;-82
2021/03/11 06:28:00;;;;;;;18.75;11.60;;;9.50;99.90;;;;;;5073021;28;20388;-82
2021/03/11 06:30:41;;;;;;;18.80;12.05;;;9.50;99.90;;;;;;5071296;28;20472;-83
2021/03/11 06:33:07;;;;;;;20.17;11.60;;;9.60;99.90;;;;;;5071785;28;20470;-82
2021/03/11 06:35:34;;;;;;;18.85;12.43;;;9.60;99.90;;;;;;5075896;28;20104;-83
2021/03/11 06:38:00;;;;;;;19.33;12.40;;;9.60;99.90;;;;;;5083661;28;20016;-83
2021/03/11 06:40:28;;;;;;;16.63;12.20;;;9.60;99.90;;;;;;5089514;28;20131;-83
2021/03/11 06:43:13;;;;;;;16.50;10.88;;;9.60;99.90;;;;;;5094842;28;20106;-83
2021/03/11 06:45:40;;;;;;;18.52;12.55;;;9.60;99.90;;;;;;5094577;28;20031;-84
2021/03/11 06:48:26;;;;;;;20.75;13.75;;;9.50;99.90;;;;;;5094681;28;20471;-82
2021/03/11 06:50:54;;;;;;;20.88;11.98;;;9.40;99.90;;;;;;5094448;28;20028;-84
2021/03/11 06:53:20;;;;;;;16.75;11.80;;;9.40;99.90;;;;;;5094292;28;20036;-83
2021/03/11 06:55:45;;;;;;;20.73;12.23;;;9.50;99.90;;;;;;5094245;28;20028;-84
2021/03/11 06:58:31;;;;;;;17.08;9.52;;;9.50;99.90;;;;;;5095584;28;20016;-83
2021/03/11 07:01:07;;;;;;;13.23;7.50;;;9.70;99.90;;;;;;5095570;28;20448;-85
2021/03/11 07:03:43;;;;;;;13.52;7.95;;;9.80;99.90;;;;;;5095283;28;20036;-84
2021/03/11 07:06:10;;;;;;;15.63;7.80;;;9.80;99.90;;;;;;5094305;28;20077;-83
2021/03/11 07:08:48;;;;;;;11.05;7.45;;;9.80;99.90;;;;;;5094074;28;20028;-83
2021/03/11 07:11:13;;;;;;;15.32;7.82;;;9.80;99.90;;;;;;5085640;28;20028;-86
2021/03/11 07:13:40;;;;;;;13.00;7.05;;;9.90;99.90;;;;;;5073698;28;20468;-84
2021/03/11 07:16:20;;;;;;;11.30;7.50;;;10.00;99.90;;;;;;5073644;28;20539;-86
2021/03/11 07:18:46;;;;;;;11.75;7.05;;;10.00;99.90;;;;;;5074004;28;20048;-85
2021/03/11 07:21:13;;;;;;;13.23;6.90;;;10.00;99.90;;;;;;5073952;28;20111;-85
2021/03/11 07:23:49;;;;;;;15.73;8.13;;;10.10;99.90;;;;;;5080745;28;20020;-87
2021/03/11 07:26:16;;;;;;;11.75;6.75;;;10.10;99.90;;;;;;5081717;28;20475;-86
2021/03/11 07:28:42;;;;;;;13.18;7.22;;;10.10;99.90;;;;;;5084052;28;20100;-86
2021/03/11 07:31:07;;;;;;;13.85;7.05;;;10.20;99.90;;;;;;5091260;28;20057;-87
2021/03/11 07:33:35;;;;;;;12.38;6.05;;;10.20;99.90;;;;;;5094509;28;20123;-85
2021/03/11 07:36:03;;;;;;;12.95;5.97;;;10.20;99.90;;;;;;5093924;28;20016;-84
2021/03/11 07:38:31;;;;;;;9.60;5.05;;;10.30;99.90;;;;;;5084834;28;20025;-84
2021/03/11 07:40:59;;;;;;;11.45;5.47;;;10.30;99.90;;;;;;5107301;28;20025;-85
2021/03/11 07:43:26;;;;;;;9.43;4.72;;;10.40;99.90;;;;;;5073270;28;20163;-88
2021/03/11 07:45:58;;;;;;;8.48;4.80;;;10.50;99.90;;;;;;5072469;28;20078;-85
2021/03/11 07:48:24;;;;;;;9.43;3.60;;;10.50;99.90;;;;;;5104167;28;20476;-84
2021/03/11 07:50:51;;;;;;;8.23;3.90;;;10.50;99.90;;;;;;5071842;28;20024;-84
2021/03/11 07:53:18;;;;;;;8.88;3.75;;;10.60;99.90;;;;;;5068924;28;20564;-85
2021/03/11 07:55:44;;;;;;;6.78;2.83;;;10.60;99.90;;;;;;5072153;28;20024;-85
2021/03/11 07:58:13;;;;;;;8.38;2.78;;;10.70;99.90;;;;;;5053735;28;20029;-85
2021/03/11 08:00:39;;;;;;;8.90;3.28;;;10.80;99.90;;;;;;5054058;28;20025;-82
2021/03/11 08:03:22;;;;;;;8.23;3.17;;;10.90;99.90;;;;;;5054100;28;20017;-84
2021/03/11 08:05:48;;;;;;;9.75;3.30;;;11.00;99.90;;;;;;5052516;28;20397;-84
2021/03/11 08:08:33;;;;;;;7.75;2.42;;;11.10;99.90;;;;;;5048555;28;20480;-83
2021/03/11 08:11:01;;;;;;;9.15;2.28;;;11.20;99.90;;;;;;5045241;28;20039;-84
2021/03/11 08:13:38;;;;;;;16.75;3.20;;;11.30;99.90;;;;;;5049620;28;20400;-84
2021/03/11 08:16:10;;;;;;;9.55;3.10;;;11.40;99.90;;;;;;5072368;28;20029;-83
2021/03/11 08:18:35;;;;;;;10.15;2.70;;;11.40;99.90;;;;;;5072256;28;20020;-83
2021/03/11 08:21:06;;;;;;;18.55;2.90;;;11.50;99.90;;;;;;5072431;28;20091;-85
2021/03/11 08:23:35;;;;;;;16.73;3.50;;;11.60;98.50;;;;;;5073284;28;20483;-86
2021/03/11 08:26:03;;;;;;;16.42;2.63;;;11.60;98.50;;;;;;5072275;28;20442;-84
2021/03/11 08:28:28;;;;;;;16.20;3.33;;;11.60;97.00;;;;;;5072455;28;20036;-84
2021/03/11 08:30:54;;;;;;;15.15;2.63;;;11.70;97.20;;;;;;5089783;28;20032;-85
2021/03/11 08:33:20;;;;;;;15.30;3.13;;;11.80;95.20;;;;;;5092028;28;20032;-85
2021/03/11 08:35:50;;;;;;;11.40;2.90;;;11.90;96.20;;;;;;5093678;28;20532;-84
2021/03/11 08:38:18;;;;;;;;;;;12.00;95.60;;;;;;5086406;28;20044;-83
2021/03/11 08:40:44;;;;;;;14.40;2.80;;;11.90;93.90;;;;;;5082576;28;19979;-83
2021/03/11 08:43:10;;;;;;;14.45;2.85;;;12.00;94.30;;;;;;5080787;28;20107;-83
2021/03/11 08:45:36;;;;;;;15.52;2.80;;;12.10;94.00;;;;;;5082810;28;20370;-84
2021/03/11 08:48:12;;;;;;;21.15;4.22;;;12.10;94.30;;;;;;5082813;28;20032;-83
2021/03/11 08:50:39;;;;;;;21.92;3.72;;;12.10;92.60;;;;;;5068603;28;20028;-85
2021/03/11 08:53:04;;;;;;;16.58;3.20;;;12.10;91.80;;;;;;5101867;28;20559;-84
2021/03/11 08:55:37;;;;;;;19.90;3.28;;;12.10;92.40;;;;;;5071453;28;20123;-85
2021/03/11 08:58:22;;;;;;;18.75;2.70;;;12.00;91.90;;;;;;5071356;28;20437;-83
2021/03/11 09:01:02;;;;;;;16.98;2.90;;;12.00;91.30;;;;;;5071842;28;20392;-83
2021/03/11 09:03:41;;;;;;;19.77;3.95;;;12.10;92.00;;;;;;5071502;28;20037;-83
2021/03/11 09:06:08;;;;;;;22.75;4.10;;;12.10;91.60;;;;;;5071626;28;20078;-83
2021/03/11 09:08:36;;;;;;;27.35;4.00;;;12.20;91.00;;;;;;5076826;28;20024;-84
2021/03/11 09:11:14;;;;;;;26.48;5.32;;;12.20;90.90;;;;;;5082287;28;20059;-83
2021/03/11 09:13:41;;;;;;;27.23;5.25;;;12.10;88.70;;;;;;5098199;28;20053;-84
2021/03/11 09:16:07;;;;;;;31.17;5.90;;;12.10;90.30;;;;;;5096556;28;20480;-84
2021/03/11 09:18:34;;;;;;;28.60;5.68;;;12.20;90.70;;;;;;5097634;28;20476;-85
2021/03/11 09:21:00;;;;;;;25.10;4.57;;;12.40;89.40;;;;;;5082023;28;20021;-84
2021/03/11 09:23:33;;;;;;;26.88;5.82;;;12.50;89.50;;;;;;5071621;28;20024;-84
2021/03/11 09:25:59;;;;;;;25.60;5.10;;;12.70;88.10;;;;;;5076779;28;20077;-85
2021/03/11 09:28:25;;;;;;;25.38;4.28;;;12.80;86.90;;;;;;5075396;28;20024;-85
2021/03/11 09:30:51;;;;;;;28.02;5.35;;;12.80;85.90;;;;;;5071509;28;20024;-85
2021/03/11 09:33:18;;;;;;;39.13;6.50;;;12.80;84.90;;;;;;5071221;28;20035;-84
2021/03/11 09:35:44;;;;;;;29.45;6.15;;;12.80;83.10;;;;;;5071423;28;20368;-85
2021/03/11 09:38:12;;;;;;;33.40;5.57;;;12.80;83.00;;;;;;5071315;28;20123;-85
2021/03/11 09:40:44;;;;;;;30.55;6.43;;;12.70;82.20;;;;;;5054167;28;20492;-83
2021/03/11 09:43:15;;;;;;;29.13;5.75;;;12.60;82.70;;;;;;5048661;28;20058;-83
2021/03/11 09:46:09;;;;;;;20.40;4.35;;;12.50;82.30;;;;;;5059765;28;20071;-79
2021/03/11 09:48:44;;;;;;;22.27;4.80;;;12.50;80.40;;;;;;5111035;28;20024;-81
2021/03/11 09:51:12;;;;;;;25.50;4.53;;;12.50;79.90;;;;;;5091755;28;20056;-80
2021/03/11 09:53:53;;;;;;;20.45;2.83;;;12.40;79.30;;;;;;5116891;27;20032;-81
2021/03/11 09:56:25;;;;;;;28.08;5.15;;;12.50;78.30;;;;;;5071079;28;20033;-80
2021/03/11 09:58:57;;;;;;;25.35;4.65;;;12.40;80.50;;;;;;5070995;28;20050;-82
2021/03/11 10:01:24;;;;;;;23.40;4.70;;;12.50;79.90;;;;;;5071103;28;20028;-82
2021/03/11 10:03:50;;;;;;;28.15;4.75;;;12.60;80.50;;;;;;5072089;28;20044;-86
2021/03/11 10:06:16;;;;;;;21.88;5.10;;;12.50;81.00;;;;;;5071538;28;20391;-87
2021/03/11 10:08:43;;;;;;;22.80;4.95;;;12.60;81.00;;;;;;5073711;28;20031;-87
2021/03/11 10:11:11;;;;;;;29.95;4.93;;;12.60;81.40;;;;;;5109100;28;20405;-87
2021/03/11 10:13:41;;;;;;;30.13;5.68;;;12.40;82.00;;;;;;5076348;28;20029;-87
2021/03/11 10:16:07;;;;;;;;;;;12.30;82.20;;;;;;5075383;28;20059;-84
2021/03/11 10:18:35;;;;;;;24.80;4.90;;;12.20;82.80;;;;;;5074668;28;19908;-86
2021/03/11 10:21:03;;;;;;;26.30;4.40;;;12.20;84.60;;;;;;5083660;28;20016;-85
2021/03/11 10:23:29;;;;;;;25.08;4.30;;;12.20;82.40;;;;;;5095841;28;20027;-86
2021/03/11 10:26:15;;;;;;;25.63;5.32;;;12.10;82.70;;;;;;5094801;28;20475;-86
2021/03/11 10:28:43;;;;;;;26.63;4.85;;;12.20;83.30;;;;;;5096188;28;20024;-86
2021/03/11 10:31:10;;;;;;;24.63;4.57;;;12.10;82.70;;;;;;5096184;28;20032;-87
2021/03/11 10:33:36;;;;;;;25.27;6.03;;;12.10;81.70;;;;;;5094925;28;20081;-85
2021/03/11 10:36:13;;;;;;;28.35;5.90;;;12.10;82.20;;;;;;5094698;28;20438;-86
2021/03/11 10:38:39;;;;;;;32.78;4.90;;;12.10;82.30;;;;;;5084005;28;20086;-85
2021/03/11 10:41:10;;;;;;;26.80;4.70;;;12.10;83.10;;;;;;5075817;28;20500;-86
2021/03/11 10:43:40;;;;;;;28.42;5.30;;;12.10;83.50;;;;;;5074419;28;20518;-86
2021/03/11 10:46:06;;;;;;;30.33;5.45;;;12.10;83.10;;;;;;5076538;28;20509;-87
2021/03/11 10:48:52;;;;;;;23.73;5.18;;;12.00;84.60;;;;;;5080956;28;20052;-86
2021/03/11 10:51:22;;;;;;;23.30;4.85;;;12.00;82.40;;;;;;5074578;28;20031;-86
2021/03/11 10:53:48;;;;;;;24.55;5.15;;;12.00;84.30;;;;;;5074703;28;20353;-88
2021/03/11 10:56:14;;;;;;;25.63;5.88;;;12.00;82.00;;;;;;5077020;28;20035;-93
2021/03/11 10:58:40;;;;;;;29.27;5.80;;;12.00;82.20;;;;;;5094893;28;20024;-91
2021/03/11 11:01:08;;;;;;;22.60;4.78;;;12.00;85.50;;;;;;5096307;28;20074;-88
2021/03/11 11:03:34;;;;;;;20.65;3.63;;;11.90;84.70;;;;;;5075925;28;20059;-90
2021/03/11 11:05:59;;;;;;;32.40;5.38;;;11.90;85.90;;;;;;5069306;28;20033;-89
2021/03/11 11:08:25;;;;;;;31.88;5.78;;;11.90;85.80;;;;;;5075282;28;20024;-84
2021/03/11 11:10:51;;;;;;;33.17;5.57;;;11.80;87.00;;;;;;5078942;28;20016;-84
2021/03/11 11:13:16;;;;;;;22.70;4.93;;;11.80;87.60;;;;;;5080662;28;20053;-84
2021/03/11 11:15:42;;;;;;;24.40;4.22;;;11.90;82.90;;;;;;5078816;28;20024;-83
2021/03/11 11:18:08;;;;;;;24.85;4.13;;;12.10;83.00;;;;;;5073449;28;20129;-84
2021/03/11 11:20:35;;;;;;;27.65;4.60;;;12.20;81.80;;;;;;5072745;28;20020;-84
2021/03/11 11:23:02;;;;;;;18.83;3.75;;;12.30;80.40;;;;;;5073322;28;20365;-85
2021/03/11 11:25:28;;;;;;;19.23;3.90;;;12.30;80.70;;;;;;5073391;28;20024;-84
2021/03/11 11:27:53;;;;;;;27.50;6.28;;;12.20;81.50;;;;;;5074446;28;20032;-85
2021/03/11 11:30:19;;;;;;;23.42;5.07;;;12.20;81.60;;;;;;5073387;28;20020;-85
2021/03/11 11:32:45;;;;;;;27.05;4.60;;;12.20;81.80;;;;;;5073232;28;20435;-84
2021/03/11 11:35:10;;;;;;;19.67;4.43;;;12.20;80.70;;;;;;5073143;28;20024;-86
2021/03/11 11:37:36;;;;;;;19.83;4.18;;;12.20;81.60;;;;;;5073052;28;20052;-84
2021/03/11 11:40:03;;;;;;;28.25;4.05;;;12.20;81.30;;;;;;5074435;28;20088;-85
2021/03/11 11:42:28;;;;;;;22.10;4.47;;;12.20;81.30;;;;;;5072818;28;20059;-84
2021/03/11 11:44:54;;;;;;;23.67;3.90;;;12.20;82.40;;;;;;5074334;28;20048;-84
2021/03/11 11:47:20;;;;;;;23.58;3.95;;;12.20;82.00;;;;;;5074165;28;20480;-84
2021/03/11 11:49:45;;;;;;;22.15;4.32;;;12.20;80.00;;;;;;5074310;28;20055;-84
2021/03/11 11:52:11;;;;;;;22.75;4.22;;;12.30;81.30;;;;;;5073825;28;20071;-84
2021/03/11 11:54:39;;;;;;;21.40;4.45;;;12.30;81.00;;;;;;5080580;28;20024;-90
2021/03/11 11:57:05;;;;;;;24.05;3.83;;;12.30;81.20;;;;;;5107767;28;20052;-89
2021/03/11 11:59:32;;;;;;;18.10;4.35;;;12.20;80.70;;;;;;5088615;28;20012;-87
2021/03/11 12:01:58;;;;;;;14.23;3.28;;;12.20;80.60;;;;;;5084597;28;20028;-86
2021/03/11 12:04:23;;;;;;;22.65;4.78;;;12.20;81.60;;;;;;5082952;28;20040;-86
2021/03/11 12:06:49;;;;;;;15.15;3.25;;;12.20;81.20;;;;;;5086216;28;20046;-87
2021/03/11 12:09:16;;;;;;;19.77;4.40;;;12.20;80.10;;;;;;5085732;28;20036;-86
2021/03/11 12:11:42;;;;;;;18.55;3.25;;;12.20;80.00;;;;;;5082371;28;20028;-88
2021/03/11 12:14:07;;;;;;;22.17;3.67;;;12.20;80.80;;;;;;5083321;28;20029;-87
2021/03/11 12:16:33;;;;;;;25.65;4.63;;;12.20;80.90;;;;;;5084702;28;20017;-89
2021/03/11 12:18:58;;;;;;;18.27;4.40;;;12.20;82.50;;;;;;5081967;28;20090;-89
2021/03/11 12:21:24;;;;;;;18.38;3.33;;;12.30;80.10;;;;;;5080503;28;20020;-87
2021/03/11 12:23:50;;;;;;;24.00;3.85;;;12.20;81.60;;;;;;5083867;28;20043;-89
2021/03/11 12:26:17;;;;;;;19.00;2.83;;;12.30;81.40;;;;;;5081502;28;20480;-87
2021/03/11 12:28:43;;;;;;;18.50;4.22;;;12.30;80.00;;;;;;5082840;28;20417;-89
2021/03/11 12:31:09;;;;;;;18.30;3.20;;;12.40;81.10;;;;;;5082679;28;20031;-87
2021/03/11 12:33:35;;;;;;;24.95;3.95;;;12.50;80.70;;;;;;5083451;28;20031;-87
2021/03/11 12:36:01;;;;;;;21.88;4.00;;;12.50;80.30;;;;;;5081974;28;20025;-88
2021/03/11 12:38:26;;;;;;;23.23;4.72;;;12.40;82.30;;;;;;5070996;28;20049;-89
2021/03/11 12:40:52;;;;;;;16.02;2.63;;;12.30;81.70;;;;;;5087923;28;20016;-87
2021/03/11 12:43:18;;;;;;;14.40;3.63;;;12.30;80.70;;;;;;5090124;28;20146;-88